createdAt,value
2022-12-15T00:02:23.834Z,40.55
2022-12-15T00:05:09.567Z,41.35
2022-12-15T00:07:55.579Z,39.60
2022-12-15T00:10:41.577Z,41.92
2022-12-15T00:13:32.369Z,40.42
2022-12-15T00:16:18.659Z,42.42
2022-12-15T00:19:04.551Z,41.28
2022-12-15T00:21:50.598Z,40.40
2022-12-15T00:24:36.576Z,40.55
2022-12-15T00:27:22.691Z,42.58
2022-12-15T00:30:08.647Z,42.40
2022-12-15T00:32:54.574Z,41.25
2022-12-15T00:35:40.677Z,41.92
2022-12-15T00:38:32.806Z,42.13
2022-12-15T00:41:01.288Z,44.58
2022-12-15T00:43:33.373Z,42.72
2022-12-15T00:46:20.515Z,42.92
2022-12-15T00:48:47.945Z,42.03
2022-12-15T00:51:15.880Z,42.40
2022-12-15T00:54:01.836Z,44.85
2022-12-15T00:56:48.052Z,42.30
2022-12-15T00:59:34.999Z,41.08
2022-12-15T01:02:22.095Z,42.43
2022-12-15T01:05:07.964Z,43.38
2022-12-15T01:07:53.778Z,42.38
2022-12-15T01:10:39.803Z,40.23
2022-12-15T01:13:25.818Z,40.58
2022-12-15T01:16:11.744Z,39.67
2022-12-15T01:18:57.531Z,38.78
2022-12-15T01:21:25.564Z,41.10
2022-12-15T01:23:53.669Z,44.20
2022-12-15T01:26:20.845Z,42.75
2022-12-15T01:28:48.050Z,41.80
2022-12-15T01:31:15.613Z,40.30
2022-12-15T01:33:43.548Z,40.55
2022-12-15T01:36:11.324Z,41.20
2022-12-15T01:38:38.689Z,39.90
2022-12-15T01:41:09.424Z,39.97
2022-12-15T01:43:39.066Z,40.22
2022-12-15T01:46:09.099Z,41.77
2022-12-15T01:48:54.725Z,40.10
2022-12-15T01:51:35.359Z,40.20
2022-12-15T01:54:08.318Z,39.35
2022-12-15T01:56:40.009Z,41.40
2022-12-15T01:59:10.997Z,38.65
2022-12-15T02:01:38.421Z,42.10
2022-12-15T02:04:05.694Z,39.50
2022-12-15T02:06:32.856Z,39.70
2022-12-15T02:09:01.198Z,40.95
2022-12-15T02:11:46.713Z,39.25
2022-12-15T02:14:25.907Z,42.13
2022-12-15T02:17:04.952Z,43.70
2022-12-15T02:19:44.638Z,37.87
2022-12-15T02:22:41.998Z,39.45
2022-12-15T02:25:32.876Z,40.13
2022-12-15T02:28:12.402Z,37.97
2022-12-15T02:31:12.630Z,39.43
2022-12-15T02:34:05.685Z,40.15
2022-12-15T02:36:39.139Z,38.17
2022-12-15T02:39:06.479Z,35.57
2022-12-15T02:41:36.850Z,35.97
2022-12-15T02:44:26.746Z,36.35
2022-12-15T02:47:29.012Z,36.42
2022-12-15T02:50:14.236Z,34.97
2022-12-15T02:53:06.241Z,36.85
2022-12-15T02:55:47.114Z,37.30
2022-12-15T02:58:31.318Z,39.33
2022-12-15T03:01:05.206Z,38.10
2022-12-15T03:03:34.977Z,37.83
2022-12-15T03:06:03.190Z,39.97
2022-12-15T03:08:30.431Z,37.50
2022-12-15T03:10:58.716Z,38.08
2022-12-15T03:13:26.085Z,36.20
2022-12-15T03:15:54.458Z,38.90
2022-12-15T03:18:21.879Z,36.47
2022-12-15T03:20:50.688Z,36.30
2022-12-15T03:23:17.915Z,37.22
2022-12-15T03:25:49.707Z,35.67
2022-12-15T03:28:17.867Z,36.73
2022-12-15T03:30:45.269Z,37.63
2022-12-15T03:33:18.364Z,37.05
2022-12-15T03:35:45.521Z,35.23
2022-12-15T03:38:13.228Z,33.47
2022-12-15T03:40:40.463Z,35.03
2022-12-15T03:43:07.713Z,35.27
2022-12-15T03:45:34.980Z,34.90
2022-12-15T03:48:02.336Z,35.13
2022-12-15T03:50:29.898Z,34.80
2022-12-15T03:53:02.354Z,33.70
2022-12-15T03:55:30.070Z,36.13
2022-12-15T03:57:59.092Z,34.57
2022-12-15T04:00:27.188Z,35.67
2022-12-15T04:02:54.678Z,36.45
2022-12-15T04:05:28.431Z,35.22
2022-12-15T04:07:57.320Z,35.05
2022-12-15T04:10:31.885Z,37.42
2022-12-15T04:13:02.227Z,36.28
2022-12-15T04:15:29.782Z,35.05
2022-12-15T04:17:58.219Z,36.10
2022-12-15T04:20:25.416Z,36.53
2022-12-15T04:22:52.632Z,36.17
2022-12-15T04:25:41.021Z,37.80
2022-12-15T04:28:28.396Z,38.13
2022-12-15T04:31:18.490Z,37.25
2022-12-15T04:34:09.198Z,36.55
2022-12-15T04:36:58.753Z,39.85
2022-12-15T04:39:44.775Z,37.88
2022-12-15T04:42:30.859Z,38.20
2022-12-15T04:45:21.202Z,36.00
2022-12-15T04:48:07.408Z,35.87
2022-12-15T04:50:53.926Z,36.83
2022-12-15T04:53:40.219Z,36.10
2022-12-15T04:56:29.824Z,36.77
2022-12-15T04:59:16.123Z,36.83
2022-12-15T05:02:02.658Z,36.72
2022-12-15T05:04:49.054Z,38.00
2022-12-15T05:07:34.997Z,37.22
2022-12-15T05:10:20.921Z,36.03
2022-12-15T05:13:06.863Z,37.65
2022-12-15T05:15:52.951Z,35.60
2022-12-15T05:18:39.345Z,38.90
2022-12-15T05:21:25.491Z,40.63
2022-12-15T05:24:11.267Z,37.58
2022-12-15T05:26:57.150Z,38.50
2022-12-15T05:29:42.857Z,37.23
2022-12-15T05:32:10.077Z,37.38
2022-12-15T05:34:38.347Z,36.87
2022-12-15T05:37:07.118Z,38.55
2022-12-15T05:39:34.591Z,37.72
2022-12-15T05:42:01.883Z,38.70
2022-12-15T05:44:29.357Z,38.33
2022-12-15T05:46:56.612Z,37.20
2022-12-15T05:49:23.779Z,39.70
2022-12-15T05:51:51.072Z,37.92
2022-12-15T05:54:19.636Z,37.10
2022-12-15T05:56:50.144Z,36.93
2022-12-15T05:59:19.209Z,37.78
2022-12-15T06:01:46.945Z,36.72
2022-12-15T06:04:14.408Z,36.30
2022-12-15T06:06:41.793Z,37.95
2022-12-15T06:09:09.522Z,36.70
2022-12-15T06:11:37.477Z,40.55
2022-12-15T06:14:05.037Z,38.00
2022-12-15T06:16:33.090Z,36.47
2022-12-15T06:19:01.965Z,38.95
2022-12-15T06:21:35.387Z,37.42
2022-12-15T06:24:04.437Z,36.90
2022-12-15T06:26:34.654Z,36.75
2022-12-15T06:29:04.039Z,38.50
2022-12-15T06:31:32.669Z,36.40
2022-12-15T06:34:03.066Z,35.88
2022-12-15T06:36:33.222Z,35.67
2022-12-15T06:39:02.223Z,34.70
2022-12-15T06:41:30.402Z,37.50
2022-12-15T06:43:58.632Z,35.50
2022-12-15T06:46:27.900Z,35.92
2022-12-15T06:48:55.717Z,37.00
2022-12-15T06:51:23.064Z,34.97
2022-12-15T06:53:53.893Z,35.90
2022-12-15T06:56:30.601Z,37.00
2022-12-15T06:59:00.102Z,37.08
2022-12-15T07:01:27.725Z,35.67
2022-12-15T07:03:55.673Z,37.60
2022-12-15T07:06:23.157Z,37.92
2022-12-15T07:08:53.212Z,38.15
2022-12-15T07:11:21.762Z,38.73
2022-12-15T07:13:50.813Z,35.47
2022-12-15T07:16:18.970Z,35.92
2022-12-15T07:18:46.342Z,36.85
2022-12-15T07:21:13.612Z,37.72
2022-12-15T07:23:54.108Z,37.00
2022-12-15T07:26:22.815Z,39.80
2022-12-15T07:28:50.043Z,39.05
2022-12-15T07:31:17.870Z,37.78
2022-12-15T07:33:45.378Z,37.67
2022-12-15T07:36:13.133Z,37.38
2022-12-15T07:38:40.358Z,37.45
2022-12-15T07:41:09.492Z,37.97
2022-12-15T07:43:37.977Z,36.15
2022-12-15T07:46:06.301Z,35.13
2022-12-15T07:48:33.764Z,35.53
2022-12-15T07:51:10.839Z,36.20
2022-12-15T07:53:40.099Z,37.72
2022-12-15T07:56:09.301Z,36.95
2022-12-15T07:58:38.327Z,38.55
2022-12-15T08:01:07.779Z,38.38
2022-12-15T08:03:36.441Z,33.90
2022-12-15T08:06:10.031Z,35.28
2022-12-15T08:08:37.403Z,37.03
2022-12-15T08:11:10.504Z,36.90
2022-12-15T08:14:02.082Z,36.63
2022-12-15T08:16:26.608Z,36.30
2022-12-15T08:18:54.098Z,35.40
2022-12-15T08:21:21.332Z,36.22
2022-12-15T08:23:49.489Z,36.15
2022-12-15T08:26:18.366Z,36.20
2022-12-15T08:28:45.928Z,37.33
2022-12-15T08:31:19.952Z,35.55
2022-12-15T08:33:48.248Z,35.83
2022-12-15T08:36:17.952Z,36.75
2022-12-15T08:38:46.086Z,35.47
2022-12-15T08:41:22.877Z,32.95
2022-12-15T08:43:50.955Z,33.53
2022-12-15T08:46:21.194Z,33.30
2022-12-15T08:48:49.201Z,34.70
2022-12-15T08:51:17.396Z,33.13
2022-12-15T08:53:45.560Z,33.35
2022-12-15T08:56:18.492Z,34.60
2022-12-15T08:58:46.830Z,34.63
2022-12-15T09:01:24.136Z,34.30
2022-12-15T09:03:56.870Z,35.63
2022-12-15T09:06:27.422Z,34.50
2022-12-15T09:08:59.451Z,33.90
2022-12-15T09:11:28.116Z,34.92
2022-12-15T09:13:55.669Z,35.40
2022-12-15T09:16:23.682Z,33.85
2022-12-15T09:18:53.466Z,34.30
2022-12-15T09:21:23.000Z,33.35
2022-12-15T09:23:51.844Z,32.03
2022-12-15T09:26:21.707Z,31.63
2022-12-15T09:28:50.193Z,32.88
2022-12-15T09:31:22.117Z,33.28
2022-12-15T09:33:51.742Z,28.83
2022-12-15T09:36:19.688Z,28.63
2022-12-15T09:38:47.438Z,29.77
2022-12-15T09:41:20.451Z,28.45
2022-12-15T09:43:59.012Z,30.88
2022-12-15T09:46:30.026Z,30.47
2022-12-15T09:49:01.863Z,28.15
2022-12-15T09:51:43.476Z,28.53
2022-12-15T09:54:11.702Z,16.70
2022-12-15T09:56:50.176Z,11.50
2022-12-15T09:59:45.994Z,12.88
2022-12-15T10:02:23.398Z,11.07
2022-12-15T10:05:10.495Z,13.32
2022-12-15T10:07:43.692Z,15.95
2022-12-15T10:10:42.828Z,26.83
2022-12-15T10:13:17.517Z,29.80
2022-12-15T10:15:58.826Z,30.27
2022-12-15T10:18:32.567Z,28.60
2022-12-15T10:21:02.043Z,27.42
2022-12-15T10:23:29.908Z,11.77
2022-12-15T10:26:11.986Z,11.93
2022-12-15T10:29:25.740Z,12.50
2022-12-15T10:31:59.328Z,19.58
2022-12-15T10:34:30.678Z,15.53
2022-12-15T10:36:58.465Z,12.23
2022-12-15T10:39:40.845Z,10.63
2022-12-15T10:42:13.981Z,11.30
2022-12-15T10:44:45.171Z,11.17
2022-12-15T10:47:27.027Z,9.35
2022-12-15T10:49:56.087Z,9.52
2022-12-15T10:52:41.344Z,10.93
2022-12-15T10:55:37.328Z,10.55
2022-12-15T10:58:18.775Z,11.52
2022-12-15T11:00:46.503Z,11.32
2022-12-15T11:03:26.722Z,10.75
2022-12-15T11:05:56.025Z,9.70
2022-12-15T11:08:24.632Z,10.40
2022-12-15T11:11:16.220Z,13.07
2022-12-15T11:14:05.800Z,10.98
2022-12-15T11:16:33.020Z,10.75
2022-12-15T11:19:30.573Z,9.75
2022-12-15T11:22:05.381Z,9.88
2022-12-15T11:24:38.757Z,11.27
2022-12-15T11:27:35.086Z,12.13
2022-12-15T11:30:15.293Z,9.32
2022-12-15T11:32:55.622Z,10.32
2022-12-15T11:35:33.522Z,10.65
2022-12-15T11:38:25.371Z,10.40
2022-12-15T11:40:56.215Z,9.75
2022-12-15T11:43:32.279Z,10.85
2022-12-15T11:46:19.567Z,12.07
2022-12-15T11:48:59.789Z,11.18
2022-12-15T11:51:42.097Z,11.85
2022-12-15T11:54:28.746Z,12.60
2022-12-15T11:57:05.610Z,12.63
2022-12-15T11:59:43.612Z,11.23
2022-12-15T12:02:32.440Z,12.25
2022-12-15T12:05:21.433Z,12.15
2022-12-15T12:08:24.193Z,12.52
2022-12-15T12:11:13.413Z,13.50
2022-12-15T12:14:11.915Z,19.38
2022-12-15T12:17:19.840Z,22.38
2022-12-15T12:19:54.653Z,25.00
2022-12-15T12:22:28.211Z,26.23
2022-12-15T12:25:02.236Z,26.52
2022-12-15T12:27:35.226Z,29.58
2022-12-15T12:30:09.957Z,30.03
2022-12-15T12:32:47.311Z,19.67
2022-12-15T12:35:32.290Z,11.75
2022-12-15T12:38:04.092Z,12.13
2022-12-15T12:40:40.813Z,13.02
2022-12-15T12:43:34.988Z,11.82
2022-12-15T12:46:11.879Z,12.32
2022-12-15T12:48:46.239Z,12.50
2022-12-15T12:51:33.875Z,11.95
2022-12-15T12:54:01.960Z,12.02
2022-12-15T12:59:37.653Z,10.43
2022-12-15T13:02:25.793Z,10.70
2022-12-15T13:05:00.402Z,11.70
2022-12-15T13:07:40.615Z,10.77
2022-12-15T13:10:07.798Z,11.10
2022-12-15T13:12:55.778Z,13.10
2022-12-15T13:15:50.915Z,12.48
2022-12-15T13:19:04.682Z,10.40
2022-12-15T13:21:44.380Z,11.52
2022-12-15T13:24:26.715Z,11.52
2022-12-15T13:27:14.294Z,12.57
2022-12-15T13:30:00.917Z,11.57
2022-12-15T13:32:38.629Z,12.57
2022-12-15T13:35:29.529Z,12.05
2022-12-15T13:37:59.277Z,11.90
2022-12-15T13:40:33.197Z,10.32
2022-12-15T13:43:26.257Z,13.60
2022-12-15T13:46:01.733Z,11.88
2022-12-15T13:48:31.752Z,13.85
2022-12-15T13:51:09.373Z,11.85
2022-12-15T13:53:44.632Z,14.57
2022-12-15T13:56:35.495Z,13.85
2022-12-15T13:59:30.860Z,13.45
2022-12-15T14:01:58.069Z,16.95
2022-12-15T14:04:26.813Z,12.50
2022-12-15T14:06:56.558Z,12.88
2022-12-15T14:09:33.633Z,15.67
2022-12-15T14:12:04.415Z,10.77
2022-12-15T14:14:37.561Z,12.60
2022-12-15T14:17:08.921Z,11.35
2022-12-15T14:19:38.942Z,14.77
2022-12-15T14:25:22.055Z,12.90
2022-12-15T14:27:50.833Z,13.60
2022-12-15T14:30:20.071Z,14.23
2022-12-15T14:32:56.382Z,14.48
2022-12-15T14:35:49.436Z,13.48
2022-12-15T14:38:28.014Z,12.48
2022-12-15T14:41:00.426Z,11.68
2022-12-15T14:43:33.487Z,12.07
2022-12-15T14:46:11.174Z,11.68
2022-12-15T14:48:42.274Z,14.23
2022-12-15T14:51:13.309Z,15.00
2022-12-15T14:53:43.114Z,20.30
2022-12-15T14:56:20.420Z,21.33
2022-12-15T14:58:59.208Z,22.55
2022-12-15T15:01:29.837Z,24.03
2022-12-15T15:03:16.030Z,12.25
2022-12-15T15:04:02.068Z,26.80
2022-12-15T15:06:40.009Z,25.33
2022-12-15T15:09:39.892Z,26.42
2022-12-15T15:12:12.661Z,26.38
2022-12-15T15:14:48.747Z,26.50
2022-12-15T15:17:18.983Z,26.63
2022-12-15T15:19:57.236Z,27.92
2022-12-15T15:22:34.360Z,28.08
2022-12-15T15:25:03.649Z,28.27
2022-12-15T15:27:38.796Z,30.52
2022-12-15T15:30:23.450Z,30.27
2022-12-15T15:32:59.182Z,31.40
2022-12-15T15:35:32.140Z,31.83
2022-12-15T15:38:05.379Z,32.67
2022-12-15T15:40:32.611Z,33.22
2022-12-15T15:43:00.181Z,34.00
2022-12-15T15:45:27.470Z,35.95
2022-12-15T15:47:56.296Z,34.70
2022-12-15T15:50:28.629Z,33.57
2022-12-15T15:52:56.833Z,33.15
2022-12-15T15:55:36.192Z,34.15
2022-12-15T15:58:10.710Z,34.93
2022-12-15T16:00:38.199Z,35.35
2022-12-15T16:03:07.080Z,34.00
2022-12-15T16:05:35.456Z,35.40
2022-12-15T16:08:04.321Z,35.43
2022-12-15T16:10:32.011Z,34.65
2022-12-15T16:13:01.694Z,33.35
2022-12-15T16:15:31.569Z,34.50
2022-12-15T16:17:59.274Z,34.47
2022-12-15T16:20:29.116Z,34.03
2022-12-15T16:23:02.157Z,33.83
2022-12-15T16:25:46.911Z,33.93
2022-12-15T16:28:20.406Z,33.30
2022-12-15T16:30:48.153Z,33.63
2022-12-15T16:33:16.100Z,34.78
2022-12-15T16:35:44.139Z,48.25
2022-12-15T16:38:21.089Z,58.42
2022-12-15T16:40:48.355Z,54.55
2022-12-15T16:43:18.192Z,54.85
2022-12-15T16:45:48.064Z,49.33
2022-12-15T16:48:16.256Z,40.67
2022-12-15T16:50:52.315Z,36.33
2022-12-15T16:53:23.662Z,34.15
2022-12-15T16:55:59.743Z,36.30
2022-12-15T16:58:28.820Z,35.60
2022-12-15T17:00:56.858Z,35.17
2022-12-15T17:03:27.920Z,36.97
2022-12-15T17:05:58.348Z,36.90
2022-12-15T17:08:51.140Z,32.03
2022-12-15T17:11:24.128Z,32.88
2022-12-15T17:13:53.758Z,34.47
2022-12-15T17:16:22.599Z,33.08
2022-12-15T17:18:51.328Z,31.35
2022-12-15T17:21:35.729Z,33.27
2022-12-15T17:24:08.443Z,33.87
2022-12-15T17:26:36.861Z,33.83
2022-12-15T17:29:14.710Z,36.05
2022-12-15T17:31:41.995Z,38.50
2022-12-15T17:34:32.302Z,38.67
2022-12-15T17:37:04.481Z,32.47
2022-12-15T17:39:33.960Z,46.27
2022-12-15T17:42:02.619Z,33.20
2022-12-15T17:44:36.099Z,34.25
2022-12-15T17:47:06.878Z,33.17
2022-12-15T17:49:37.662Z,38.73
2022-12-15T17:52:19.863Z,35.88
2022-12-15T17:54:47.107Z,39.38
2022-12-15T17:57:14.341Z,43.05
2022-12-15T17:59:41.580Z,38.15
2022-12-15T18:02:13.637Z,38.30
2022-12-15T18:04:41.623Z,39.22
2022-12-15T18:07:20.754Z,40.38
2022-12-15T18:09:48.810Z,38.97
2022-12-15T18:12:24.746Z,36.37
2022-12-15T18:14:52.914Z,36.28
2022-12-15T18:17:20.539Z,38.03
2022-12-15T18:19:48.255Z,36.78
2022-12-15T18:22:23.693Z,35.05
2022-12-15T18:24:53.435Z,34.77
2022-12-15T18:27:24.937Z,35.17
2022-12-15T18:29:52.893Z,36.22
2022-12-15T18:32:22.290Z,36.72
2022-12-15T18:34:49.503Z,38.20
2022-12-15T18:37:21.296Z,37.78
2022-12-15T18:39:48.737Z,39.73
2022-12-15T18:42:18.213Z,43.27
2022-12-15T18:44:51.697Z,44.47
2022-12-15T18:47:22.163Z,53.22
2022-12-15T18:49:49.708Z,41.20
2022-12-15T18:52:19.862Z,42.22
2022-12-15T18:54:51.682Z,49.13
2022-12-15T18:57:30.791Z,93.03
2022-12-15T19:00:25.712Z,50.42
2022-12-15T19:02:54.962Z,45.80
2022-12-15T19:05:33.652Z,49.58
2022-12-15T19:08:02.993Z,46.80
2022-12-15T19:10:33.736Z,48.28
2022-12-15T19:13:01.486Z,48.63
2022-12-15T19:15:29.006Z,52.37
2022-12-15T19:18:15.081Z,79.10
2022-12-15T19:21:01.515Z,63.53
2022-12-15T19:23:29.005Z,48.45
2022-12-15T19:25:56.624Z,47.03
2022-12-15T19:28:24.443Z,50.37
2022-12-15T19:30:52.203Z,49.38
2022-12-15T19:33:19.911Z,49.58
2022-12-15T19:35:50.921Z,52.17
2022-12-15T19:38:30.008Z,50.78
2022-12-15T19:40:58.348Z,65.50
2022-12-15T19:43:26.310Z,52.40
2022-12-15T19:45:54.220Z,53.72
2022-12-15T19:48:23.867Z,53.67
2022-12-15T19:50:52.379Z,58.30
2022-12-15T19:53:27.078Z,75.43
2022-12-15T19:55:57.080Z,59.17
2022-12-15T19:58:28.057Z,69.20
2022-12-15T20:00:57.966Z,59.75
2022-12-15T20:03:28.244Z,62.65
2022-12-15T20:05:57.436Z,64.03
2022-12-15T20:08:36.592Z,71.30
2022-12-15T20:11:04.268Z,72.82
2022-12-15T20:13:31.904Z,65.18
2022-12-15T20:15:59.610Z,61.95
2022-12-15T20:18:26.829Z,62.30
2022-12-15T20:20:54.153Z,66.70
2022-12-15T20:23:29.054Z,78.22
2022-12-15T20:25:56.868Z,70.03
2022-12-15T20:28:29.541Z,63.45
2022-12-15T20:30:58.233Z,64.95
2022-12-15T20:33:25.550Z,64.93
2022-12-15T20:35:53.536Z,79.22
2022-12-15T20:38:33.735Z,69.63
2022-12-15T20:41:02.590Z,67.32
2022-12-15T20:43:31.727Z,68.07
2022-12-15T20:46:22.900Z,67.10
2022-12-15T20:48:52.029Z,63.73
2022-12-15T20:51:24.015Z,57.67
2022-12-15T20:53:52.915Z,59.88
2022-12-15T20:56:23.699Z,61.92
2022-12-15T20:58:55.903Z,63.63
2022-12-15T21:01:27.453Z,62.20
2022-12-15T21:03:56.966Z,61.00
2022-12-15T21:06:25.773Z,55.90
2022-12-15T21:08:53.904Z,58.08
2022-12-15T21:11:26.670Z,60.72
2022-12-15T21:13:56.744Z,56.72
2022-12-15T21:16:27.195Z,55.58
2022-12-15T21:19:19.152Z,54.00
2022-12-15T21:21:46.349Z,54.97
2022-12-15T21:24:19.049Z,59.05
2022-12-15T21:26:46.984Z,58.13
2022-12-15T21:29:17.028Z,58.30
2022-12-15T21:31:46.986Z,59.17
2022-12-15T21:34:15.329Z,60.95
2022-12-15T21:36:45.777Z,60.83
2022-12-15T21:39:21.630Z,62.60
2022-12-15T21:41:48.965Z,59.55
2022-12-15T21:44:16.202Z,61.65
2022-12-15T21:46:43.582Z,59.28
2022-12-15T21:49:14.978Z,62.28
2022-12-15T21:51:44.920Z,64.22
2022-12-15T21:54:15.437Z,65.05
2022-12-15T21:56:42.861Z,64.25
2022-12-15T21:59:20.835Z,61.78
2022-12-15T22:01:49.093Z,62.58
2022-12-15T22:04:23.099Z,61.25
2022-12-15T22:06:50.513Z,69.22
2022-12-15T22:09:18.756Z,65.97
2022-12-15T22:11:48.974Z,64.38
2022-12-15T22:14:27.372Z,65.27
2022-12-15T22:16:55.240Z,62.25
2022-12-15T22:19:23.097Z,64.88
2022-12-15T22:21:50.989Z,64.05
2022-12-15T22:24:19.957Z,63.10
2022-12-15T22:26:47.717Z,63.40
2022-12-15T22:29:20.273Z,64.25
2022-12-15T22:31:49.374Z,58.47
2022-12-15T22:34:19.658Z,61.10
2022-12-15T22:36:47.208Z,63.67
2022-12-15T22:39:14.996Z,64.28
2022-12-15T22:41:50.697Z,61.80
2022-12-15T22:44:26.804Z,61.53
2022-12-15T22:46:56.916Z,47.08
2022-12-15T22:49:37.652Z,43.58
2022-12-15T22:52:19.431Z,36.60
2022-12-15T22:54:47.748Z,34.03
2022-12-15T22:57:26.851Z,30.60
2022-12-15T23:00:00.442Z,29.43
2022-12-15T23:02:31.058Z,31.52
2022-12-15T23:04:58.337Z,29.15
2022-12-15T23:07:25.861Z,27.48
2022-12-15T23:10:13.116Z,27.45
2022-12-15T23:12:40.432Z,29.38
2022-12-15T23:15:26.573Z,28.67
2022-12-15T23:17:53.787Z,30.48
2022-12-15T23:20:22.304Z,28.80
2022-12-15T23:22:49.497Z,29.45
2022-12-15T23:25:16.680Z,29.10
2022-12-15T23:27:43.971Z,29.40
2022-12-15T23:30:12.745Z,29.20
2022-12-15T23:32:39.980Z,27.58
2022-12-15T23:35:07.444Z,25.90
2022-12-15T23:37:35.336Z,26.50
2022-12-15T23:40:03.419Z,27.70
2022-12-15T23:42:30.598Z,27.02
2022-12-15T23:44:57.897Z,24.75
2022-12-15T23:47:25.158Z,25.00
2022-12-15T23:49:52.407Z,24.45
2022-12-15T23:52:19.808Z,24.67
2022-12-15T23:54:47.029Z,22.67
2022-12-15T23:57:14.212Z,23.60
2022-12-15T23:59:41.365Z,22.85
